Elliot Chaparral Reserve, California Weather observations

Data are for 10 minute period ending at time listed.
 Day   Time   Solar   Ave.   Ave.  Ave.  Vector  Max.   Baro.   Total    
  of    of     Rad.   Air    Rel.  Wind   Wind   Wind  Press.  Precip.   
Year   Day            Temp.  Hum.  Speed  Dir.   Gust                    
2017   (PST)  Kw/m2    F      %     mph   deg.    mph    mb.     in.     
-------------------------------------------------------------------------
 112    7:40   0.44   71.4    47    3.5   338     4.7   983.9    0.00 
 112    7:50   0.48   72.1    44    2.7     3     4.1   983.8    0.00 
 112    8:00   0.51   75.0    40    1.8    32     4.1   983.7    0.00 
 112    8:10   0.49   76.8    36    3.4    17     5.4   983.6    0.00 
 112    8:20   0.57   76.8    35    3.9     0     5.8   983.6    0.00 
 112    8:30   0.59   78.0    34    3.3    13     4.9   983.5    0.00 
 112    8:40   0.62   78.4    34    3.3   345     5.6   983.4    0.00 
 112    8:50   0.66   79.8    31    3.2    16     6.1   983.3    0.00 
 112    9:00   0.69   81.8    30    3.2   341     5.9   983.3    0.00 
 112    9:10   0.71   81.7    32    4.2   264     7.7   983.3    0.00 
 112    9:20   0.74   81.6    31    5.2   266     8.8   983.3    0.00 
 112    9:30   0.76   81.9    31    3.8   281     7.7   983.2    0.00 
 112    9:40   0.78   82.7    30    3.7   268     7.0   983.2    0.00 
 112    9:50   0.80   84.0    28    3.7   281     8.2   983.2    0.00 
 112   10:00   0.82   84.0    28    3.8   290     7.2   983.1    0.00 
 112   10:10   0.84   85.1    26    3.4   275     6.4   983.1    0.00 
 112   10:20   0.86   85.7    25    5.8   261     9.4   983.1    0.00 
 112   10:30   0.87   86.2    23    5.9   290     9.1   983.0    0.00 
 112   10:40   0.88   86.5    22    6.2   280    10.4   982.9    0.00 
 112   10:50   0.87   87.1    21    7.0   264    10.5   982.8    0.00 
 112   11:00   0.91   87.9    22    6.0   277    11.1   982.7    0.00 
 112   11:10   0.91   88.2    25    8.9   290    12.9   982.6    0.00 
 112   11:20   0.87   87.1    30   12.8   289    16.5   982.5    0.00 
 112   11:30   0.88   86.2    31   13.1   281    17.7   982.4    0.00 
 112   11:40   0.87   85.2    31   12.4   288    16.7   982.3    0.00 
 112   11:50   0.92   84.9    30   11.2   305    15.0   982.3    0.00 
 112   12:00   0.66   84.1    30   11.4   285    14.6   982.2    0.00 
 112   12:10   0.69   83.3    28   10.0   293    13.5   982.1    0.00 
 112   12:20   0.76   83.9    27    9.4   281    13.4   982.1    0.00 
 112   12:30   0.86   85.0    25   10.0   281    13.0   982.0    0.00 
 112   12:40   0.90   85.2    24   10.3   285    13.7   982.0    0.00 
 112   12:50   0.91   85.6    22    9.8   288    13.2   982.0    0.00 
 112   13:00   0.89   86.6    20    9.9   285    14.0   982.0    0.00 
 112   13:10   0.83   86.6    19   10.0   285    14.0   982.0    0.00 
 112   13:20   0.82   87.0    18    9.8   304    13.4   982.0    0.00 
 112   13:30   0.82   87.6    18   10.1   280    15.5   981.9    0.00 
 112   13:40   0.80   87.9    18   11.6   276    14.8   981.9    0.00 
 112   13:50   0.80   88.1    19   11.6   278    15.5   981.9    0.00 
 112   14:00   0.78   88.9    18    9.9   274    15.1   981.9    0.00 
 112   14:10   0.76   88.7    17   10.9   277    14.8   981.8    0.00 
 112   14:20   0.74   88.6    17   11.1   278    17.5   981.7    0.00 
 112   14:30   0.70   87.5    18   11.6   277    16.5   981.7    0.00 
 112   14:40   0.65   87.4    18   11.3   288    16.1   981.6    0.00 
 112   14:50   0.67   87.0    18   11.7   277    16.8   981.5    0.00 
 112   15:00   0.64   86.1    20   12.2   289    16.7   981.5    0.00 
 112   15:10   0.59   85.2    21   12.4   288    15.3   981.5    0.00 
 112   15:20   0.57   84.0    24   13.7   284    17.1   981.6    0.00 
 112   15:30   0.54   81.8    28   13.3   292    16.5   981.6    0.00 
 112   15:40   0.50   79.7    33   12.4   286    15.5   981.7    0.00 
 112   15:50   0.47   78.4    36   11.6   287    14.6   981.7    0.00 
 112   16:00   0.43   77.2    40   10.5   285    15.6   981.8    0.00 
 112   16:10   0.40   76.7    42    9.5   276    13.0   981.9    0.00 
 112   16:20   0.36   76.0    45    9.8   271    14.2   982.1    0.00 
 112   16:30   0.32   75.6    46    7.8   281    11.9   982.1    0.00 
 112   16:40   0.29   75.6    47    7.5   288    10.4   982.2    0.00 
 112   16:50   0.25   74.9    49    7.2   283    10.7   982.3    0.00 
 112   17:00   0.22   74.8    49    6.5   284     9.6   982.3    0.00 
 112   17:10   0.18   74.3    51    5.7   289     8.4   982.3    0.00 
 112   17:20   0.15   73.9    52    4.4   271     7.5   982.3    0.00 
 112   17:30   0.12   74.0    52    3.8   257     6.3   982.3    0.00 
 112   17:40   0.09   73.7    53    3.4   261     4.7   982.3    0.00 
 112   17:50   0.07   73.1    54    3.5   244     5.0   982.3    0.00 
 112   18:00   0.04   72.5    55    3.2   237     5.6   982.3    0.00 
 112   18:10   0.02   71.1    60    4.1   222     5.6   982.4    0.00 
 112   18:20   0.00   69.9    64    3.4   226     4.1   982.5    0.00 
 112   18:30   0.00   68.7    66    4.3   238     5.0   982.7    0.00 
 112   18:40   0.00   68.3    66    3.0   254     3.4   982.7    0.00 
 112   18:50   0.00   68.4    65    2.4   263     3.4   982.8    0.00 
 112   19:00   0.00   68.0    67    0.8    79     2.1   982.9    0.00 
 112   19:10   0.00   67.8    66    0.3   260     1.2   982.9    0.00 
 112   19:20   0.00   68.0    66    0.5   245     1.2   983.0    0.00 
 112   19:30   0.00   68.2    66    1.7   245     2.2   983.2    0.00 
 112   19:40   0.00   68.2    66    2.2   236     2.6   983.2    0.00 
 112   19:50   0.00   67.8    66    1.9   205     2.4   983.3    0.00 
 112   20:00   0.00   67.0    68    1.7   133     2.5   983.3    0.00 
 112   20:10   0.00   67.2    68    1.6   182     2.0   983.3    0.00 
 112   20:20   0.00   67.2    67    2.3   174     3.1   983.4    0.00 
 112   20:30   0.00   66.9    68    2.9   171     3.6   983.4    0.00 
 112   20:40   0.00   66.4    69    2.9   156     3.7   983.3    0.00 
 112   20:50   0.00   66.2    70    2.5   150     3.3   983.3    0.00 
 112   21:00   0.00   66.1    70    2.5   140     3.6   983.2    0.00 
 112   21:10   0.00   65.5    72    3.9   144     4.8   983.1    0.00 
 112   21:20   0.00   65.9    72    3.2   136     4.4   983.0    0.00 
 112   21:30   0.00   66.4    72    3.0   121     4.7   982.9    0.00 
 112   21:40   0.00   66.8    70    3.5   124     4.8   982.9    0.00 
 112   21:50   0.00   66.6    70    3.9   137     5.1   982.8    0.00 
 112   22:00   0.00   66.5    70    2.8   166     3.6   982.8    0.00 
 112   22:10   0.00   65.5    73    2.2   259     3.6   982.8    0.00 
 112   22:20   0.00   64.2    78    3.3   225     3.9   982.7    0.00 
 112   22:30   0.00   63.5    80    2.9   174     3.4   982.6    0.00 
 112   22:40   0.00   63.2    81    3.5   185     4.0   982.5    0.00 
 112   22:50   0.00   63.2    84    2.6   201     3.1   982.5    0.00 
 112   23:00   0.00   62.9    84    2.1   177     2.5   982.4    0.00 
 112   23:10   0.00   62.3    85    1.9   148     2.9   982.4    0.00 
 112   23:20   0.00   62.4    85    2.6   171     3.9   982.4    0.00 
 112   23:30   0.00   61.8    86    5.2   161     6.6   982.3    0.00 
 112   23:40   0.00   61.8    87    4.9   171     6.4   982.3    0.00 
 112   23:50   0.00   62.2    87    3.7   204     5.0   982.4    0.00 
 113    0:00   0.00   62.1    87    3.4   257     3.9   982.5    0.00 
 113    0:10   0.00   61.9    87    3.7   281     4.5   982.4    0.00 
 113    0:20   0.00   61.1    88    4.9   298     6.8   982.5    0.00 
 113    0:30   0.00   60.4    88    7.3   300     8.8   982.5    0.00 
 113    0:40   0.00   59.8    90    7.7   301     9.3   982.6    0.00 
 113    0:50   0.00   59.5    90    5.3   318     7.2   982.5    0.00 
 113    1:00   0.00   59.0    89    6.1   328     8.3   982.4    0.00 
 113    1:10   0.00   58.5    92    4.2   331     7.5   982.5    0.00 
 113    1:20   0.00   58.9    94    3.0   351     4.7   982.5    0.00 
 113    1:30   0.00   59.1    94    2.9     9     4.2   982.5    0.00 
 113    1:40   0.00   59.3    94    2.4     9     4.4   982.5    0.00 
 113    1:50   0.00   59.2    94    1.1    88     2.2   982.5    0.00 
 113    2:00   0.00   58.8    95    4.3   110     6.6   982.3    0.00 
 113    2:10   0.00   58.4    95    6.2   107     7.9   982.3    0.00 
 113    2:20   0.00   57.5    96    9.4   101    12.2   982.0    0.00 
 113    2:30   0.00   56.8    96    8.0   101    10.9   981.9    0.00 
 113    2:40   0.00   57.0    97    9.7    97    14.4   981.8    0.00 
 113    2:50   0.00   57.5    97   15.0   102    19.8   981.6    0.00 
 113    3:00   0.00   57.9    96   16.5   104    21.7   981.5    0.00 
 113    3:10   0.00   58.1    96   13.2   102    17.1   981.7    0.00 
 113    3:20   0.00   58.1    96    7.3    95    13.8   981.8    0.00 
 113    3:30   0.00   58.0    95    1.0    62     4.2   981.9    0.00 
 113    3:40   0.00   57.8    95    5.2    92     9.0   981.8    0.00 
 113    3:50   0.00   57.8    95   11.5   102    14.8   981.5    0.00 
 113    4:00   0.00   58.1    95   13.2   103    16.5   981.3    0.00 
 113    4:10   0.00   58.4    94    8.1    93    13.2   981.5    0.00 
 113    4:20   0.00   58.5    94    9.5   100    12.1   981.6    0.00 
 113    4:30   0.00   58.5    93    9.3   101    11.2   981.5    0.00 
 113    4:40   0.00   58.2    92    9.6   100    11.6   981.4    0.00 
 113    4:50   0.00   57.8    92    6.9   108    11.5   981.6    0.00 
 113    5:00   0.00   57.3    93    3.3   225     6.1   981.9    0.00 
 113    5:10   0.00   56.9    94    4.5   187     5.8   982.1    0.00 
 113    5:20   0.01   56.8    94    3.5   160     5.5   982.2    0.00 
 113    5:30   0.03   57.1    94    3.8   251     6.5   982.3    0.00 
 113    5:40   0.03   56.9    94    4.5   284     6.4   982.5    0.00 
 113    5:50   0.04   57.4    95    2.2   258     3.0   982.5    0.00 
 113    6:00   0.05   57.0    94    1.5   133     3.3   982.4    0.00 
 113    6:10   0.07   56.9    95    3.0   121     3.8   982.3    0.00 
 113    6:20   0.10   57.6    95    3.5   116     4.7   982.4    0.00 
 113    6:30   0.14   58.7    94    2.8   118     4.7   982.6    0.00 
 113    6:40   0.16   59.3    92    5.6   110     7.7   982.5    0.00 
 113    6:50   0.23   60.3    88    4.5   112     8.7   982.6    0.00 
 113    7:00   0.27   61.6    83    4.9   121     8.2   982.8    0.00 
 113    7:10   0.40   62.7    78    5.4   143     7.2   982.9    0.00 
 113    7:20   0.35   63.6    74    5.6   168     9.0   983.0    0.00 
 113    7:30   0.41   63.8    74    6.4   187     9.1   983.0    0.00 

Return to Elliot Chaparral Reserve graphs page.


Western Regional Climate Center,wrcc@dri.edu